createdAt,value
2022-07-26T00:02:18.463Z,77416.81
2022-07-26T00:04:46.452Z,77525.91
2022-07-26T00:07:14.180Z,77513.78
2022-07-26T00:09:48.066Z,77564.31
2022-07-26T00:12:16.754Z,77542.09
2022-07-26T00:14:44.631Z,77439.03
2022-07-26T00:17:12.434Z,77307.72
2022-07-26T00:19:40.795Z,77441.06
2022-07-26T00:22:26.140Z,77497.63
2022-07-26T00:24:55.375Z,77497.63
2022-07-26T00:27:23.264Z,77558.25
2022-07-26T00:29:53.735Z,77481.47
2022-07-26T00:32:21.789Z,77497.63
2022-07-26T00:34:52.015Z,77558.25
2022-07-26T00:37:20.912Z,77501.69
2022-07-26T00:39:49.190Z,77521.88
2022-07-26T00:42:18.647Z,77453.19
2022-07-26T00:44:47.563Z,77554.22
2022-07-26T00:47:16.570Z,77509.75
2022-07-26T00:49:44.917Z,77566.31
2022-07-26T00:52:13.481Z,77602.69
2022-07-26T00:54:44.118Z,77600.69
2022-07-26T00:57:11.864Z,77590.56
2022-07-26T00:59:41.373Z,77624.91
2022-07-26T01:02:10.841Z,77630.97
2022-07-26T01:04:39.564Z,77645.13
2022-07-26T01:07:14.732Z,77663.31
2022-07-26T01:09:44.063Z,77651.19
2022-07-26T01:12:12.836Z,77637.03
2022-07-26T01:14:45.010Z,77630.97
2022-07-26T01:17:13.551Z,77699.69
2022-07-26T01:19:42.163Z,77665.31
2022-07-26T01:22:14.553Z,77679.47
2022-07-26T01:24:42.997Z,77655.22
2022-07-26T01:27:10.974Z,77691.59
2022-07-26T01:29:39.164Z,77695.63
2022-07-26T01:32:07.898Z,77687.56
2022-07-26T01:34:35.952Z,77683.50
2022-07-26T01:37:05.973Z,77673.41
2022-07-26T01:39:35.136Z,77703.72
2022-07-26T01:42:02.905Z,77715.84
2022-07-26T01:44:30.674Z,77732.00
2022-07-26T01:46:59.231Z,77727.97
2022-07-26T01:49:27.677Z,77715.84
2022-07-26T01:51:55.624Z,77715.84
2022-07-26T01:54:24.398Z,77740.09
2022-07-26T01:56:54.148Z,77760.28
2022-07-26T01:59:22.050Z,77772.41
2022-07-26T02:01:50.137Z,77796.66
2022-07-26T02:04:31.914Z,77776.47
2022-07-26T02:06:59.802Z,77788.56
2022-07-26T02:09:27.912Z,77800.69
2022-07-26T02:12:01.187Z,77820.91
2022-07-26T02:14:29.729Z,77865.34
2022-07-26T02:17:00.060Z,77867.38
2022-07-26T02:19:28.310Z,77881.53
2022-07-26T02:21:56.753Z,77917.91
2022-07-26T02:24:25.031Z,77905.78
2022-07-26T02:26:52.998Z,77942.13
2022-07-26T02:29:22.096Z,77913.84
2022-07-26T02:31:49.952Z,77944.16
2022-07-26T02:34:18.304Z,77934.06
2022-07-26T02:36:46.200Z,77942.13
2022-07-26T02:39:14.644Z,77934.06
2022-07-26T02:41:42.355Z,77946.19
2022-07-26T02:44:11.203Z,77964.38
2022-07-26T02:46:40.987Z,77978.50
2022-07-26T02:49:08.912Z,77990.63
2022-07-26T02:51:36.667Z,78043.16
2022-07-26T02:54:04.646Z,78071.47
2022-07-26T02:56:32.796Z,78059.34
2022-07-26T02:59:00.651Z,78071.47
2022-07-26T03:01:28.647Z,78079.53
2022-07-26T03:03:58.183Z,78115.91
2022-07-26T03:06:25.920Z,78103.78
2022-07-26T03:08:53.825Z,78095.72
2022-07-26T03:11:21.596Z,78134.09
2022-07-26T03:13:49.350Z,78121.97
2022-07-26T03:16:20.438Z,78140.16
2022-07-26T03:18:50.750Z,78148.25
2022-07-26T03:21:19.862Z,78136.13
2022-07-26T03:23:47.882Z,78146.22
2022-07-26T03:26:15.960Z,78166.44
2022-07-26T03:28:44.782Z,78192.69
2022-07-26T03:31:13.202Z,78148.25
2022-07-26T03:33:41.296Z,78198.75
2022-07-26T03:36:11.460Z,78180.56
2022-07-26T03:38:42.248Z,78216.94
2022-07-26T03:41:13.516Z,78160.38
2022-07-26T03:43:41.724Z,78206.84
2022-07-26T03:46:10.112Z,78212.91
2022-07-26T03:48:38.098Z,78168.44
2022-07-26T03:51:06.294Z,78202.81
2022-07-26T03:53:34.627Z,78184.63
2022-07-26T03:56:22.015Z,78164.41
2022-07-26T03:58:49.875Z,78115.91
2022-07-26T04:01:18.110Z,78144.19
2022-07-26T04:03:47.920Z,78128.03
2022-07-26T04:06:16.742Z,78109.84
2022-07-26T04:08:45.662Z,78089.66
2022-07-26T04:11:15.126Z,78067.41
2022-07-26T04:13:43.261Z,78035.09
2022-07-26T04:16:11.389Z,78039.13
2022-07-26T04:18:39.566Z,78041.16
2022-07-26T04:21:07.566Z,78059.34
2022-07-26T04:23:35.216Z,78035.09
2022-07-26T04:26:03.206Z,78045.19
2022-07-26T04:28:32.957Z,77984.56
2022-07-26T04:31:01.579Z,78043.16
2022-07-26T04:33:29.404Z,78037.09
2022-07-26T04:35:57.112Z,78051.25
2022-07-26T04:38:25.198Z,78002.75
2022-07-26T04:40:53.529Z,78006.81
2022-07-26T04:43:21.283Z,78035.09
2022-07-26T04:45:50.536Z,78035.09
2022-07-26T04:48:18.682Z,77990.63
2022-07-26T04:50:46.632Z,77948.19
2022-07-26T04:53:14.480Z,77913.84
2022-07-26T04:55:43.036Z,77845.16
2022-07-26T04:58:11.442Z,77833.03
2022-07-26T05:01:08.610Z,77814.84
2022-07-26T05:03:29.728Z,77772.41
2022-07-26T05:05:58.060Z,77774.44
2022-07-26T05:08:26.113Z,77770.38
2022-07-26T05:10:55.868Z,77606.72
2022-07-26T05:13:30.323Z,77505.72
2022-07-26T05:15:58.998Z,77376.41
2022-07-26T05:18:27.587Z,77376.41
2022-07-26T05:20:58.995Z,77049.13
2022-07-26T05:23:26.736Z,76822.88
2022-07-26T05:25:55.477Z,76919.84
2022-07-26T05:28:23.190Z,77093.59
2022-07-26T05:30:51.547Z,77218.84
2022-07-26T05:33:19.542Z,77259.25
2022-07-26T05:35:47.515Z,77259.25
2022-07-26T05:38:16.915Z,77291.56
2022-07-26T05:40:50.088Z,77336.00
2022-07-26T05:43:18.632Z,77331.97
2022-07-26T05:45:46.569Z,77368.34
2022-07-26T05:48:14.409Z,77196.59
2022-07-26T05:50:42.334Z,77267.31
2022-07-26T05:53:10.333Z,77279.44
2022-07-26T05:55:39.722Z,77311.75
2022-07-26T05:58:08.416Z,77388.53
2022-07-26T06:00:36.497Z,77449.16
2022-07-26T06:03:22.155Z,77453.19
2022-07-26T06:05:50.660Z,77321.88
2022-07-26T06:08:19.465Z,77428.94
2022-07-26T06:10:49.610Z,77487.53
2022-07-26T06:13:18.274Z,77612.78
2022-07-26T06:15:46.747Z,77663.31
2022-07-26T06:18:15.248Z,77618.84
2022-07-26T06:20:44.541Z,77529.97
2022-07-26T06:23:13.563Z,77356.22
2022-07-26T06:25:42.089Z,77420.88
2022-07-26T06:28:12.382Z,77352.16
2022-07-26T06:30:41.233Z,77301.66
2022-07-26T06:33:09.695Z,77420.88
2022-07-26T06:35:39.403Z,77570.38
2022-07-26T06:38:08.395Z,77610.78
2022-07-26T06:40:37.010Z,77602.69
2022-07-26T06:43:05.424Z,77624.91
2022-07-26T06:45:34.853Z,77596.63
2022-07-26T06:48:02.921Z,77544.09
2022-07-26T06:50:31.147Z,77612.78
2022-07-26T06:52:59.262Z,77392.56
2022-07-26T06:55:27.070Z,77230.94
2022-07-26T06:57:55.117Z,76919.84
2022-07-26T07:00:23.004Z,76923.88
2022-07-26T07:02:52.926Z,77004.69
2022-07-26T07:05:20.967Z,76816.81
2022-07-26T07:07:49.414Z,76887.53
2022-07-26T07:10:17.625Z,76919.84
2022-07-26T07:12:48.480Z,76538.06
2022-07-26T07:15:16.419Z,76297.72
2022-07-26T07:17:44.997Z,76406.78
2022-07-26T07:20:15.048Z,76426.97
2022-07-26T07:22:43.175Z,76156.34
2022-07-26T07:25:11.399Z,76309.84
2022-07-26T07:27:43.105Z,76447.19
2022-07-26T07:30:12.697Z,76309.84
2022-07-26T07:32:40.836Z,76794.59
2022-07-26T07:35:12.878Z,76635.03
2022-07-26T07:37:52.681Z,76867.31
2022-07-26T07:40:22.793Z,76705.72
2022-07-26T07:42:50.739Z,76596.66
2022-07-26T07:45:19.360Z,76420.91
2022-07-26T07:47:47.142Z,75671.63
2022-07-26T07:50:15.187Z,75756.47
2022-07-26T07:52:47.468Z,75394.97
2022-07-26T07:55:37.715Z,75928.13
2022-07-26T07:58:03.312Z,75661.53
2022-07-26T08:00:31.342Z,75671.63
2022-07-26T08:02:59.166Z,76186.63
2022-07-26T08:05:27.268Z,75974.56
2022-07-26T08:07:56.800Z,76006.88
2022-07-26T08:10:24.675Z,75804.91
2022-07-26T08:12:53.004Z,75429.31
2022-07-26T08:15:22.021Z,75388.94
2022-07-26T08:17:54.623Z,74928.56
2022-07-26T08:20:24.966Z,75388.94
2022-07-26T08:22:53.216Z,74787.22
2022-07-26T08:25:23.141Z,75223.34
2022-07-26T08:28:09.276Z,75257.66
2022-07-26T08:30:38.773Z,75435.38
2022-07-26T08:33:06.715Z,75457.59
2022-07-26T08:35:34.530Z,75772.59
2022-07-26T08:38:02.349Z,76091.69
2022-07-26T08:40:31.595Z,76396.69
2022-07-26T08:42:59.797Z,76172.50
2022-07-26T08:45:30.609Z,75889.75
2022-07-26T08:50:47.222Z,76746.13
2022-07-26T08:53:15.270Z,76370.44
2022-07-26T08:56:05.975Z,75770.59
2022-07-26T08:58:34.624Z,75409.13
2022-07-26T09:01:07.203Z,75574.69
2022-07-26T09:03:37.943Z,75946.28
2022-07-26T09:06:14.356Z,75372.78
2022-07-26T09:08:43.048Z,75639.31
2022-07-26T09:11:32.314Z,76031.13
2022-07-26T09:14:01.971Z,76071.50
2022-07-26T09:16:31.256Z,75566.63
2022-07-26T09:19:19.154Z,75578.75
2022-07-26T09:21:47.681Z,75744.34
2022-07-26T09:24:33.823Z,76031.13
2022-07-26T09:27:05.709Z,76210.88
2022-07-26T09:29:47.571Z,76095.75
2022-07-26T09:32:18.458Z,75938.22
2022-07-26T09:34:53.070Z,75227.38
2022-07-26T09:37:35.064Z,74643.88
2022-07-26T09:40:06.611Z,74754.91
2022-07-26T09:42:36.295Z,75736.25
2022-07-26T09:45:15.840Z,75808.97
2022-07-26T09:47:43.696Z,75138.53
2022-07-26T09:50:14.323Z,74528.78
2022-07-26T09:52:58.117Z,74670.13
2022-07-26T09:55:26.348Z,74977.00
2022-07-26T09:57:55.927Z,75817.03
2022-07-26T10:00:25.883Z,75938.22
2022-07-26T10:02:54.391Z,75813.00
2022-07-26T10:05:23.059Z,76095.75
2022-07-26T10:07:51.919Z,76083.63
2022-07-26T10:10:24.825Z,76148.25
2022-07-26T10:12:55.723Z,75819.06
2022-07-26T10:15:42.958Z,75364.69
2022-07-26T10:18:16.701Z,75748.38
2022-07-26T10:20:50.633Z,75479.78
2022-07-26T10:23:38.405Z,75712.03
2022-07-26T10:26:08.299Z,76200.75
2022-07-26T10:28:41.462Z,75703.94
2022-07-26T10:31:31.885Z,75489.88
2022-07-26T10:34:02.420Z,75845.31
2022-07-26T10:36:37.267Z,75885.69
2022-07-26T10:39:14.172Z,76154.31
2022-07-26T10:41:45.129Z,75845.31
2022-07-26T10:44:33.561Z,76111.91
2022-07-26T10:47:12.761Z,76035.16
2022-07-26T10:49:42.105Z,75942.25
2022-07-26T10:52:13.642Z,76200.75
2022-07-26T10:55:09.381Z,76321.94
2022-07-26T10:57:39.045Z,76364.38
2022-07-26T11:00:27.965Z,76483.53
2022-07-26T11:02:59.008Z,76572.41
2022-07-26T11:05:31.636Z,76633.00
2022-07-26T11:08:05.473Z,76511.81
2022-07-26T11:10:35.091Z,76467.38
2022-07-26T11:13:23.957Z,76317.91
2022-07-26T11:16:00.347Z,76435.06
2022-07-26T11:18:32.682Z,76594.63
2022-07-26T11:21:10.908Z,76354.28
2022-07-26T11:23:41.202Z,76410.81
2022-07-26T11:26:15.281Z,76592.59
2022-07-26T11:29:03.999Z,76291.66
2022-07-26T11:31:50.384Z,76000.81
2022-07-26T11:34:25.677Z,75768.56
2022-07-26T11:36:55.623Z,75776.66
2022-07-26T11:39:25.224Z,75350.56
2022-07-26T11:42:00.736Z,75296.03
2022-07-26T11:44:30.414Z,75546.44
2022-07-26T11:47:01.029Z,75881.66
2022-07-26T11:52:25.676Z,76317.91
2022-07-26T11:54:55.589Z,76445.16
2022-07-26T11:57:29.525Z,76437.06
2022-07-26T11:59:57.547Z,76499.69
2022-07-26T12:02:27.461Z,76402.75
2022-07-26T12:05:18.474Z,76471.41
2022-07-26T12:07:58.861Z,76469.41
2022-07-26T12:10:27.388Z,76519.91
2022-07-26T12:13:08.826Z,76475.47
2022-07-26T12:15:47.885Z,76556.25
2022-07-26T12:18:25.654Z,76649.16
2022-07-26T12:21:05.537Z,76693.59
2022-07-26T12:23:45.253Z,76752.19
2022-07-26T12:26:23.752Z,76762.28
2022-07-26T12:28:52.479Z,76744.09
2022-07-26T12:31:25.159Z,76713.81
2022-07-26T12:33:54.709Z,76675.44
2022-07-26T12:36:27.168Z,76729.97
2022-07-26T12:38:57.327Z,76754.22
2022-07-26T12:41:35.833Z,76732.00
2022-07-26T12:44:04.032Z,76742.09
2022-07-26T12:46:33.817Z,76891.56
2022-07-26T12:49:03.779Z,77012.78
2022-07-26T12:51:31.854Z,76972.38
2022-07-26T12:54:00.247Z,76952.16
2022-07-26T12:56:28.280Z,76925.91
2022-07-26T12:59:01.154Z,76891.56
2022-07-26T13:01:30.357Z,76940.06
2022-07-26T13:03:58.432Z,76830.97
2022-07-26T13:06:27.673Z,76855.22
2022-07-26T13:08:56.675Z,76837.03
2022-07-26T13:11:25.043Z,76778.44
2022-07-26T13:13:53.351Z,76665.31
2022-07-26T13:16:21.286Z,76556.25
2022-07-26T13:18:49.721Z,76410.81
2022-07-26T13:21:18.057Z,76188.66
2022-07-26T13:23:47.192Z,76063.44
2022-07-26T13:26:15.522Z,76176.53
2022-07-26T13:28:44.219Z,75978.59
2022-07-26T13:31:13.688Z,76095.75
2022-07-26T13:33:41.497Z,76289.63
2022-07-26T13:36:09.761Z,76572.41
2022-07-26T13:38:37.560Z,76701.69
2022-07-26T13:41:07.062Z,76867.31
2022-07-26T13:43:36.329Z,77113.78
2022-07-26T13:46:04.348Z,77291.56
2022-07-26T13:48:32.372Z,77344.09
2022-07-26T13:51:00.208Z,77392.56
2022-07-26T13:53:30.057Z,77416.81
2022-07-26T13:55:58.114Z,77485.50
2022-07-26T13:58:27.178Z,77536.03
2022-07-26T14:00:55.094Z,77428.94
2022-07-26T14:03:23.086Z,77400.66
2022-07-26T14:05:51.147Z,77461.25
2022-07-26T14:08:19.210Z,77352.16
2022-07-26T14:10:47.409Z,77352.16
2022-07-26T14:13:16.343Z,77366.31
2022-07-26T14:15:45.545Z,77360.25
2022-07-26T14:18:13.545Z,77285.50
2022-07-26T14:20:41.740Z,77245.09
2022-07-26T14:23:10.243Z,77358.22
2022-07-26T14:25:38.129Z,77323.88
2022-07-26T14:28:06.296Z,77182.47
2022-07-26T14:30:35.629Z,77115.81
2022-07-26T14:33:06.026Z,77125.91
2022-07-26T14:35:34.662Z,77032.97
2022-07-26T14:38:02.488Z,77081.47
2022-07-26T14:40:30.411Z,76984.50
2022-07-26T14:42:58.996Z,77184.50
2022-07-26T14:45:27.036Z,77204.69
2022-07-26T14:47:54.933Z,77162.28
2022-07-26T14:50:26.034Z,77032.97
2022-07-26T14:52:56.643Z,77138.03
2022-07-26T14:55:25.508Z,77291.56
2022-07-26T14:57:53.948Z,77275.41
2022-07-26T15:00:21.850Z,77265.28
2022-07-26T15:02:50.679Z,77230.94
2022-07-26T15:05:19.036Z,77133.97
2022-07-26T15:07:48.261Z,77210.75
2022-07-26T15:10:16.404Z,77210.75
2022-07-26T15:12:45.291Z,77247.13
2022-07-26T15:15:14.031Z,77344.09
2022-07-26T15:17:41.848Z,77269.34
2022-07-26T15:20:09.942Z,77340.03
2022-07-26T15:22:38.399Z,77291.56
2022-07-26T15:25:08.944Z,77150.16
2022-07-26T15:27:36.774Z,77194.59
2022-07-26T15:30:09.066Z,77194.59
2022-07-26T15:32:44.133Z,77206.72
2022-07-26T15:35:14.397Z,77218.84
2022-07-26T15:37:44.820Z,77259.25
2022-07-26T15:40:15.087Z,77243.06
2022-07-26T15:42:45.675Z,77154.19
2022-07-26T15:45:14.665Z,77138.03
2022-07-26T15:47:54.762Z,77158.22
2022-07-26T15:50:23.988Z,77158.22
2022-07-26T15:52:52.102Z,77186.50
2022-07-26T15:55:21.979Z,77049.13
2022-07-26T15:57:49.808Z,77107.72
2022-07-26T16:00:18.733Z,77004.69
2022-07-26T16:02:46.763Z,77045.09
2022-07-26T16:05:15.099Z,76931.97
2022-07-26T16:07:44.004Z,76970.34
2022-07-26T16:10:14.042Z,77020.84
2022-07-26T16:12:43.861Z,77079.44
2022-07-26T16:15:13.002Z,77065.31
2022-07-26T16:17:41.624Z,77089.53
2022-07-26T16:20:10.770Z,76980.44
2022-07-26T16:22:41.704Z,76992.56
2022-07-26T16:25:13.340Z,76899.66
2022-07-26T16:27:44.638Z,76818.84
2022-07-26T16:30:14.293Z,76956.22
2022-07-26T16:32:43.424Z,76940.06
2022-07-26T16:35:11.828Z,76923.88
2022-07-26T16:37:39.727Z,77077.41
2022-07-26T16:40:09.121Z,76952.16
2022-07-26T16:42:37.414Z,76986.50
2022-07-26T16:45:08.864Z,76925.91
2022-07-26T16:47:37.228Z,76960.25
2022-07-26T16:50:05.541Z,76923.88
2022-07-26T16:52:33.495Z,77073.38
2022-07-26T16:55:01.920Z,77142.06
2022-07-26T16:57:30.093Z,77146.09
2022-07-26T16:59:58.222Z,77176.41
2022-07-26T17:02:28.158Z,77230.94
2022-07-26T17:04:58.805Z,77295.59
2022-07-26T17:07:26.937Z,77287.53
2022-07-26T17:09:55.849Z,77392.56
2022-07-26T17:12:24.620Z,77299.66
2022-07-26T17:14:52.803Z,77259.25
2022-07-26T17:17:20.850Z,77275.41
2022-07-26T17:19:51.028Z,77303.69
2022-07-26T17:22:19.755Z,77323.88
2022-07-26T17:24:48.149Z,77323.88
2022-07-26T17:27:16.140Z,77408.75
2022-07-26T17:29:44.610Z,77432.97
2022-07-26T17:32:12.807Z,77408.75
2022-07-26T17:34:40.743Z,77473.38
2022-07-26T17:37:10.493Z,77461.25
2022-07-26T17:39:51.431Z,77465.31
2022-07-26T17:42:21.053Z,77493.59
2022-07-26T17:44:48.988Z,77457.22
2022-07-26T17:47:28.044Z,77461.25
2022-07-26T17:50:14.150Z,77455.22
2022-07-26T17:52:49.134Z,77513.78
2022-07-26T17:55:18.651Z,77505.72
2022-07-26T17:57:48.163Z,77497.63
2022-07-26T18:00:17.238Z,77485.50
2022-07-26T18:02:45.170Z,77485.50
2022-07-26T18:05:13.069Z,77432.97
2022-07-26T18:07:41.539Z,77511.78
2022-07-26T18:10:11.719Z,77582.50
2022-07-26T18:12:40.151Z,77608.75
2022-07-26T18:15:09.019Z,77521.88
2022-07-26T18:17:37.360Z,77527.94
2022-07-26T18:20:07.547Z,77574.41
2022-07-26T18:22:35.356Z,77635.03
2022-07-26T18:25:03.451Z,77639.06
2022-07-26T18:27:32.672Z,77633.00
2022-07-26T18:30:00.932Z,77643.09
2022-07-26T18:32:29.503Z,77655.22
2022-07-26T18:34:57.289Z,77614.81
2022-07-26T18:37:25.166Z,77606.72
2022-07-26T18:39:57.561Z,77663.31
2022-07-26T18:42:26.391Z,77626.94
2022-07-26T18:44:55.829Z,77655.22
2022-07-26T18:47:23.873Z,77703.72
2022-07-26T18:49:52.404Z,77719.88
2022-07-26T18:52:31.936Z,77699.69
2022-07-26T18:55:02.612Z,77729.97
2022-07-26T18:57:30.869Z,77756.25
2022-07-26T19:00:00.674Z,77772.41
2022-07-26T19:02:28.803Z,77780.50
2022-07-26T19:04:56.750Z,77782.50
2022-07-26T19:07:24.664Z,77812.81
2022-07-26T19:09:58.211Z,77820.91
2022-07-26T19:12:26.874Z,77845.16
2022-07-26T19:14:55.443Z,77871.41
2022-07-26T19:17:24.936Z,77849.19
2022-07-26T19:19:52.973Z,77883.53
2022-07-26T19:22:22.651Z,77889.59
2022-07-26T19:24:51.257Z,77930.00
2022-07-26T19:27:19.209Z,77901.72
2022-07-26T19:29:47.405Z,77950.22
2022-07-26T19:32:15.678Z,77897.69
2022-07-26T19:34:45.260Z,77938.09
2022-07-26T19:37:13.312Z,77946.19
2022-07-26T19:39:41.349Z,77956.28
2022-07-26T19:42:10.121Z,77930.00
2022-07-26T19:44:38.425Z,77901.72
2022-07-26T19:47:06.390Z,77958.31
2022-07-26T19:49:34.577Z,77925.97
2022-07-26T19:52:08.337Z,77917.91
2022-07-26T19:54:39.224Z,77905.78
2022-07-26T19:57:08.436Z,77921.94
2022-07-26T19:59:36.498Z,77909.81
2022-07-26T20:02:05.683Z,77913.84
2022-07-26T20:04:33.698Z,77958.31
2022-07-26T20:07:02.977Z,77948.19
2022-07-26T20:09:31.573Z,77948.19
2022-07-26T20:12:00.484Z,77934.06
2022-07-26T20:14:28.499Z,77970.44
2022-07-26T20:16:57.059Z,78000.75
2022-07-26T20:19:28.074Z,78010.84
2022-07-26T20:21:56.694Z,77954.25
2022-07-26T20:24:26.374Z,77986.59
2022-07-26T20:26:54.520Z,77990.63
2022-07-26T20:29:22.531Z,77954.25
2022-07-26T20:31:50.443Z,77974.47
2022-07-26T20:34:18.273Z,77960.31
2022-07-26T20:36:46.075Z,77966.38
2022-07-26T20:39:15.176Z,77950.22
2022-07-26T20:41:44.587Z,77942.13
2022-07-26T20:44:13.639Z,77950.22
2022-07-26T20:46:41.822Z,78006.81
2022-07-26T20:49:11.161Z,77966.38
2022-07-26T20:51:39.522Z,77970.44
2022-07-26T20:54:08.680Z,78006.81
2022-07-26T20:56:36.667Z,78020.94
2022-07-26T20:59:06.499Z,78018.94
2022-07-26T21:01:35.580Z,78002.75
2022-07-26T21:04:04.235Z,78012.84
2022-07-26T21:06:33.213Z,78047.22
2022-07-26T21:09:08.914Z,78047.22
2022-07-26T21:11:37.751Z,78035.09
2022-07-26T21:14:07.229Z,78043.16
2022-07-26T21:16:35.768Z,78053.28
2022-07-26T21:19:04.158Z,78067.41
2022-07-26T21:21:34.452Z,78081.56
2022-07-26T21:24:02.702Z,78075.50
2022-07-26T21:26:30.611Z,78077.53
2022-07-26T21:28:58.808Z,78061.34
2022-07-26T21:31:28.167Z,78067.41
2022-07-26T21:33:56.496Z,78067.41
2022-07-26T21:36:24.841Z,78057.31
2022-07-26T21:38:52.734Z,78103.78
2022-07-26T21:41:20.826Z,78065.41
2022-07-26T21:43:49.110Z,78057.31
2022-07-26T21:46:17.133Z,78087.63
2022-07-26T21:48:46.825Z,78085.59
2022-07-26T21:51:14.886Z,78115.91
2022-07-26T21:53:43.128Z,78142.19
2022-07-26T21:56:11.696Z,78117.94
2022-07-26T21:58:39.560Z,78099.75
2022-07-26T22:01:08.762Z,78140.16
2022-07-26T22:03:38.106Z,78170.47
2022-07-26T22:06:09.779Z,78180.56
2022-07-26T22:08:38.378Z,78136.13
2022-07-26T22:11:06.674Z,78148.25
2022-07-26T22:13:34.432Z,78164.41
2022-07-26T22:16:02.489Z,78148.25
2022-07-26T22:18:30.552Z,78200.78
2022-07-26T22:20:59.271Z,78168.44
2022-07-26T22:23:31.063Z,78168.09
2022-07-26T22:26:02.121Z,60533.06
2022-07-26T22:28:30.883Z,60533.31
2022-07-26T22:30:59.659Z,60533.06
2022-07-26T22:33:27.971Z,60533.06
2022-07-26T22:35:56.029Z,60533.06
2022-07-26T22:38:23.958Z,60533.06
2022-07-26T22:40:54.878Z,60533.06
2022-07-26T22:43:22.718Z,60533.06
2022-07-26T22:45:50.868Z,60533.06
2022-07-26T22:48:18.722Z,60533.06
2022-07-26T22:50:46.810Z,60533.06
2022-07-26T22:53:15.401Z,60533.06
2022-07-26T22:55:43.330Z,60533.06
2022-07-26T22:58:12.721Z,60533.06
2022-07-26T23:00:40.724Z,60533.06
2022-07-26T23:03:19.417Z,60533.06
2022-07-26T23:05:48.016Z,60533.06
2022-07-26T23:08:45.931Z,60533.06
2022-07-26T23:11:05.450Z,60533.06
2022-07-26T23:13:35.278Z,60533.06
2022-07-26T23:16:03.360Z,60533.06
2022-07-26T23:18:31.912Z,60533.06
2022-07-26T23:20:59.762Z,60533.06
2022-07-26T23:23:29.539Z,60533.06
2022-07-26T23:25:57.593Z,60533.06
2022-07-26T23:28:35.554Z,60533.06
2022-07-26T23:31:08.404Z,60533.06
2022-07-26T23:33:52.701Z,60533.06
2022-07-26T23:36:23.649Z,60533.06
2022-07-26T23:38:52.239Z,60533.06
2022-07-26T23:41:20.422Z,60533.06
2022-07-26T23:43:48.416Z,60533.06
2022-07-26T23:46:17.883Z,60533.06
2022-07-26T23:48:45.951Z,60533.06
2022-07-26T23:51:13.858Z,60533.06
2022-07-26T23:53:41.800Z,60533.06
2022-07-26T23:56:09.969Z,60533.06
2022-07-26T23:58:37.832Z,60533.06
